Pagina principale
METAR-TAF:

METAR-TAF

Aeroporti :

Aeroporto di Niamey-Diori Hamani

Niamey, Niger

latitudine: 13-29N, longitudine: 002-10E, altezza: 223 m

Osservazione

Il bollettino è stato emesso 59 minuti fa, alle 23:00 UTC
Vento 6 kt da sud
Temperature 35°C
Umidità 37%
Pressione 1009 hPa
Visibilità: 8000 m

METAR: DRRN 292300Z 19006KT 8000 NSC 35/18 Q1009 NOSIG

Ora: 00:59 (23:59 UTC)

Previsione

Il bollettino è stato emesso 6 ore e 59 minuti fa, alle 17:00 UTC
Previsione valida dal 29 alle 18 UTC al 30 alle 24 UTC
Vento 5 kt da est
Visibilità: 8000 m
Evoluzione graduale
dal 29 alle 22 UTC al 29 alle 24 UTC
Vento 10 kt da ovest/sud-ovest

TAF: DRRN 291700Z 2918/3024 09005KT 8000 NSC BECMG 2922/2924 24010KT

Osservazioni e previsioni meteorologiche di più di 4000 aeroporti (messaggi METAR e TAF).

Le stazioni disponibili sono rappresentate dai dischi gialli e rossi sulla carta.

Puntare il mouse per vedere il nome della stazione.

Clicca sopra per visualizzare le osservazioni e previsioni meteorologiche.

Per cambiare la mappa : fare clic sui pulsanti verdi con una croce nera per ingrandire, il pulsante verde con un trattino per diminuire, o sulla freccia verde per le mappe adiacenti.


METAR-TAF: